createdAt,value
2018-12-13T00:00:17.953Z,-0.70
2018-12-13T00:02:46.438Z,-0.70
2018-12-13T00:05:14.964Z,-0.80
2018-12-13T00:07:43.456Z,-0.80
2018-12-13T00:10:11.982Z,-0.80
2018-12-13T00:12:40.507Z,-0.80
2018-12-13T00:15:09.150Z,-0.80
2018-12-13T00:17:37.674Z,-0.90
2018-12-13T00:20:06.408Z,-0.90
2018-12-13T00:22:34.930Z,-1.10
2018-12-13T00:25:03.468Z,-1.10
2018-12-13T00:27:31.966Z,-1.10
2018-12-13T00:30:00.475Z,-1.10
2018-12-13T00:32:29.008Z,-1.00
2018-12-13T00:34:57.540Z,-1.00
2018-12-13T00:37:26.040Z,-1.00
2018-12-13T00:39:54.564Z,-1.00
2018-12-13T00:42:23.092Z,-1.00
2018-12-13T00:44:51.604Z,-1.00
2018-12-13T00:47:20.137Z,-1.00
2018-12-13T00:49:48.706Z,-1.10
2018-12-13T00:52:17.211Z,-1.10
2018-12-13T00:54:45.713Z,-1.20
2018-12-13T00:57:14.247Z,-1.20
2018-12-13T00:59:42.780Z,-1.20
2018-12-13T01:02:11.320Z,-1.20
2018-12-13T01:04:39.850Z,-1.20
2018-12-13T01:07:08.385Z,-1.20
2018-12-13T01:09:36.895Z,-1.30
2018-12-13T01:12:05.428Z,-1.50
2018-12-13T01:14:33.940Z,-1.60
2018-12-13T01:17:02.754Z,-1.60
2018-12-13T01:19:31.285Z,-1.80
2018-12-13T01:21:59.963Z,-2.00
2018-12-13T01:24:28.484Z,-2.30
2018-12-13T01:26:57.024Z,-2.30
2018-12-13T01:29:26.198Z,-2.40
2018-12-13T01:31:54.750Z,-2.40
2018-12-13T01:34:23.274Z,-2.60
2018-12-13T01:36:52.521Z,-2.70
2018-12-13T01:39:21.271Z,-3.00
2018-12-13T01:41:49.811Z,-3.10
2018-12-13T01:44:18.331Z,-3.00
2018-12-13T01:46:46.879Z,-2.90
2018-12-13T01:49:15.374Z,-2.80
2018-12-13T01:51:43.942Z,-2.80
2018-12-13T01:54:12.447Z,-2.70
2018-12-13T01:56:40.958Z,-2.70
2018-12-13T01:59:09.473Z,-2.70
2018-12-13T02:01:37.983Z,-2.70
2018-12-13T02:04:06.491Z,-2.60
2018-12-13T02:06:35.011Z,-2.60
2018-12-13T02:09:04.920Z,-2.50
2018-12-13T02:11:33.430Z,-2.50
2018-12-13T02:14:01.961Z,-2.50
2018-12-13T02:16:30.490Z,-2.50
2018-12-13T02:18:59.051Z,-2.50
2018-12-13T02:21:27.706Z,-2.60
2018-12-13T02:23:56.231Z,-2.60
2018-12-13T02:26:24.779Z,-2.70
2018-12-13T02:28:53.299Z,-2.80
2018-12-13T02:31:21.799Z,-2.90
2018-12-13T02:33:50.337Z,-3.00
2018-12-13T02:36:18.850Z,-3.00
2018-12-13T02:38:47.344Z,-3.00
2018-12-13T02:41:15.840Z,-2.90
2018-12-13T02:43:44.362Z,-2.80
2018-12-13T02:46:12.890Z,-2.70
2018-12-13T02:48:41.404Z,-2.70
2018-12-13T02:51:09.972Z,-2.70
2018-12-13T02:53:38.497Z,-2.60
2018-12-13T02:56:07.035Z,-2.50
2018-12-13T02:58:35.661Z,-2.40
2018-12-13T03:01:04.323Z,-2.40
2018-12-13T03:03:32.821Z,-2.40
2018-12-13T03:06:01.459Z,-2.30
2018-12-13T03:08:29.975Z,-2.20
2018-12-13T03:10:58.482Z,-2.10
2018-12-13T03:13:27.388Z,-2.00
2018-12-13T03:15:55.915Z,-2.00
2018-12-13T03:18:24.430Z,-1.90
2018-12-13T03:20:52.952Z,-1.90
2018-12-13T03:23:21.475Z,-1.90
2018-12-13T03:25:50.011Z,-1.80
2018-12-13T03:28:18.545Z,-1.80
2018-12-13T03:30:47.092Z,-1.80
2018-12-13T03:33:15.612Z,-1.80
2018-12-13T03:35:44.121Z,-1.80
2018-12-13T03:38:12.650Z,-1.80
2018-12-13T03:40:41.162Z,-1.80
2018-12-13T03:43:09.693Z,-1.70
2018-12-13T03:45:38.226Z,-1.60
2018-12-13T03:48:06.772Z,-1.70
2018-12-13T03:50:35.281Z,-1.70
2018-12-13T03:53:03.839Z,-1.70
2018-12-13T03:55:32.376Z,-1.80
2018-12-13T03:58:00.973Z,-1.90
2018-12-13T04:00:29.486Z,-2.00
2018-12-13T04:02:58.001Z,-2.10
2018-12-13T04:05:26.513Z,-2.00
2018-12-13T04:07:55.044Z,-1.80
2018-12-13T04:10:23.763Z,-1.90
2018-12-13T04:12:52.296Z,-1.80
2018-12-13T04:15:20.811Z,-1.80
2018-12-13T04:17:49.306Z,-1.80
2018-12-13T04:20:17.818Z,-1.90
2018-12-13T04:22:46.363Z,-1.80
2018-12-13T04:25:14.909Z,-1.80
2018-12-13T04:27:43.435Z,-1.80
2018-12-13T04:30:11.949Z,-1.80
2018-12-13T04:32:40.466Z,-1.80
2018-12-13T04:35:09.013Z,-1.70
2018-12-13T04:37:37.578Z,-1.70
2018-12-13T04:40:06.241Z,-1.70
2018-12-13T04:42:34.760Z,-1.70
2018-12-13T04:45:03.299Z,-1.70
2018-12-13T04:47:31.822Z,-1.60
2018-12-13T04:50:00.333Z,-1.60
2018-12-13T04:52:28.839Z,-1.60
2018-12-13T04:54:57.373Z,-1.70
2018-12-13T04:57:25.906Z,-1.60
2018-12-13T04:59:54.445Z,-1.60
2018-12-13T05:02:22.959Z,-1.50
2018-12-13T05:04:51.516Z,-1.40
2018-12-13T05:07:20.035Z,-1.30
2018-12-13T05:09:48.564Z,-1.30
2018-12-13T05:12:17.115Z,-1.30
2018-12-13T05:14:45.648Z,-1.20
2018-12-13T05:17:14.172Z,-1.20
2018-12-13T05:19:42.742Z,-1.10
2018-12-13T05:22:11.281Z,-1.20
2018-12-13T05:24:39.805Z,-1.10
2018-12-13T05:27:08.335Z,-1.10
2018-12-13T05:29:37.259Z,-1.10
2018-12-13T05:32:05.760Z,-1.00
2018-12-13T05:34:34.296Z,-1.00
2018-12-13T05:37:02.829Z,-1.00
2018-12-13T05:39:31.358Z,-0.90
2018-12-13T05:41:59.889Z,-0.90
2018-12-13T05:44:28.430Z,-0.90
2018-12-13T05:46:56.973Z,-0.90
2018-12-13T05:49:25.494Z,-0.80
2018-12-13T05:51:54.009Z,-0.80
2018-12-13T05:54:22.545Z,-0.90
2018-12-13T05:56:51.077Z,-0.80
2018-12-13T05:59:19.600Z,-0.80
2018-12-13T06:01:48.671Z,-0.80
2018-12-13T06:04:17.240Z,-0.80
2018-12-13T06:06:45.751Z,-0.80
2018-12-13T06:09:14.315Z,-0.70
2018-12-13T06:11:42.816Z,-0.70
2018-12-13T06:14:11.383Z,-0.70
2018-12-13T06:16:40.014Z,-0.70
2018-12-13T06:19:08.543Z,-0.70
2018-12-13T06:21:37.223Z,-0.70
2018-12-13T06:24:05.856Z,-0.60
2018-12-13T06:26:34.375Z,-0.60
2018-12-13T06:29:02.934Z,-0.60
2018-12-13T06:31:31.483Z,-0.60
2018-12-13T06:34:00.018Z,-0.60
2018-12-13T06:36:28.687Z,-0.60
2018-12-13T06:38:57.211Z,-0.60
2018-12-13T06:41:25.761Z,-0.70
2018-12-13T06:43:54.273Z,-0.80
2018-12-13T06:46:22.809Z,-0.80
2018-12-13T06:48:51.374Z,-0.90
2018-12-13T06:51:20.215Z,-0.80
2018-12-13T06:53:48.863Z,-0.80
2018-12-13T06:56:17.370Z,-0.80
2018-12-13T06:58:45.944Z,-0.70
2018-12-13T07:01:14.481Z,-0.70
2018-12-13T07:03:43.034Z,-0.70
2018-12-13T07:06:11.558Z,-0.70
2018-12-13T07:08:40.076Z,-0.70
2018-12-13T07:11:08.595Z,-0.70
2018-12-13T07:13:37.111Z,-0.70
2018-12-13T07:16:05.642Z,-0.60
2018-12-13T07:18:34.177Z,-0.60
2018-12-13T07:21:02.729Z,-0.50
2018-12-13T07:23:31.253Z,-0.50
2018-12-13T07:25:59.826Z,-0.50
2018-12-13T07:28:29.046Z,-0.50
2018-12-13T07:30:57.874Z,-0.40
2018-12-13T07:33:26.423Z,-0.40
2018-12-13T07:35:54.950Z,-0.40
2018-12-13T07:38:23.479Z,-0.50
2018-12-13T07:40:52.801Z,-0.50
2018-12-13T07:43:22.797Z,-0.50
2018-12-13T07:45:51.409Z,-0.50
2018-12-13T07:48:19.937Z,-0.50
2018-12-13T07:50:48.517Z,-0.50
2018-12-13T07:53:19.607Z,-0.50
2018-12-13T07:55:48.210Z,-0.50
2018-12-13T07:58:16.758Z,-0.50
2018-12-13T08:00:45.286Z,-0.40
2018-12-13T08:03:13.946Z,-0.40
2018-12-13T08:05:42.479Z,-0.50
2018-12-13T08:08:10.997Z,-0.50
2018-12-13T08:10:39.528Z,-0.50
2018-12-13T08:13:08.017Z,-0.50
2018-12-13T08:15:36.556Z,-0.60
2018-12-13T08:18:05.096Z,-0.50
2018-12-13T08:20:33.614Z,-0.50
2018-12-13T08:23:02.157Z,-0.50
2018-12-13T08:25:30.674Z,-0.50
2018-12-13T08:27:59.159Z,-0.50
2018-12-13T08:30:27.628Z,-0.40
2018-12-13T08:32:56.111Z,-0.30
2018-12-13T08:35:24.638Z,-0.20
2018-12-13T08:37:53.175Z,-0.20
2018-12-13T08:40:21.683Z,-0.20
2018-12-13T08:42:50.171Z,-0.20
2018-12-13T08:45:18.692Z,-0.10
2018-12-13T08:47:47.238Z,-0.10
2018-12-13T08:50:15.739Z,0.00
2018-12-13T08:52:44.213Z,-0.10
2018-12-13T08:55:12.714Z,-0.10
2018-12-13T08:57:41.193Z,0.00
2018-12-13T09:00:09.919Z,0.00
2018-12-13T09:02:38.406Z,0.00
2018-12-13T09:05:07.185Z,0.00
2018-12-13T09:07:35.781Z,0.10
2018-12-13T09:10:05.301Z,0.20
2018-12-13T09:12:33.885Z,0.30
2018-12-13T09:15:02.489Z,0.30
2018-12-13T09:17:31.132Z,0.40
2018-12-13T09:19:59.720Z,0.50
2018-12-13T09:22:28.342Z,0.40
2018-12-13T09:24:56.937Z,0.40
2018-12-13T09:27:26.418Z,0.30
2018-12-13T09:29:54.995Z,0.30
2018-12-13T09:32:23.672Z,0.30
2018-12-13T09:34:52.264Z,0.30
2018-12-13T09:37:20.861Z,0.30
2018-12-13T09:39:49.480Z,0.30
2018-12-13T09:42:18.123Z,0.40
2018-12-13T09:44:46.791Z,0.30
2018-12-13T09:47:15.511Z,0.40
2018-12-13T09:49:44.214Z,0.50
2018-12-13T09:52:12.870Z,0.60
2018-12-13T09:54:41.539Z,0.70
2018-12-13T09:57:10.163Z,0.80
2018-12-13T09:59:38.805Z,1.00
2018-12-13T10:02:07.414Z,1.30
2018-12-13T10:04:36.097Z,1.40
2018-12-13T10:07:04.718Z,1.30
2018-12-13T10:09:33.322Z,1.30
2018-12-13T10:12:01.982Z,1.30
2018-12-13T10:14:30.573Z,1.30
2018-12-13T10:16:59.175Z,1.10
2018-12-13T10:19:27.947Z,1.00
2018-12-13T10:21:56.572Z,0.70
2018-12-13T10:24:25.176Z,0.70
2018-12-13T10:26:53.758Z,0.70
2018-12-13T10:29:22.339Z,0.70
2018-12-13T10:31:50.947Z,0.70
2018-12-13T10:34:19.555Z,0.60
2018-12-13T10:36:48.151Z,0.60
2018-12-13T10:39:16.726Z,0.60
2018-12-13T10:41:45.459Z,0.60
2018-12-13T10:44:14.133Z,0.70
2018-12-13T10:46:42.728Z,0.70
2018-12-13T10:49:11.342Z,0.70
2018-12-13T10:51:39.963Z,0.80
2018-12-13T10:54:08.657Z,0.80
2018-12-13T10:56:37.275Z,0.70
2018-12-13T10:59:05.892Z,0.70
2018-12-13T11:01:41.066Z,0.60
2018-12-13T11:04:09.679Z,0.70
2018-12-13T11:06:38.319Z,0.70
2018-12-13T11:09:07.199Z,0.70
2018-12-13T11:11:35.803Z,0.60
2018-12-13T11:14:04.410Z,0.60
2018-12-13T11:16:33.010Z,0.60
2018-12-13T11:19:01.632Z,0.60
2018-12-13T11:21:30.251Z,0.60
2018-12-13T11:23:58.907Z,0.70
2018-12-13T11:26:27.596Z,0.60
2018-12-13T11:29:34.715Z,0.50
2018-12-13T11:32:03.705Z,0.60
2018-12-13T11:34:32.297Z,0.60
2018-12-13T11:37:00.902Z,0.60
2018-12-13T11:39:29.538Z,0.60
2018-12-13T11:41:58.130Z,0.70
2018-12-13T11:44:26.784Z,0.80
2018-12-13T11:46:55.371Z,0.80
2018-12-13T11:49:23.962Z,0.80
2018-12-13T11:51:52.588Z,0.80
2018-12-13T11:54:43.567Z,0.80
2018-12-13T11:57:12.933Z,0.80
2018-12-13T11:59:41.586Z,0.70
2018-12-13T12:02:10.209Z,0.70
2018-12-13T12:04:38.824Z,0.80
2018-12-13T12:07:07.431Z,1.00
2018-12-13T12:09:36.040Z,1.00
2018-12-13T12:12:04.692Z,1.00
2018-12-13T12:14:33.295Z,1.10
2018-12-13T12:17:01.914Z,1.10
2018-12-13T12:19:30.537Z,1.00
2018-12-13T12:21:59.194Z,0.80
2018-12-13T12:24:27.789Z,0.80
2018-12-13T12:26:56.383Z,0.80
2018-12-13T12:29:25.000Z,0.80
2018-12-13T12:31:53.718Z,0.80
2018-12-13T12:34:22.340Z,0.80
2018-12-13T12:36:50.946Z,0.80
2018-12-13T12:39:19.547Z,0.80
2018-12-13T12:41:48.138Z,0.80
2018-12-13T12:44:16.735Z,0.80
2018-12-13T12:46:45.367Z,0.70
2018-12-13T12:49:13.962Z,0.70
2018-12-13T12:51:42.568Z,0.70
2018-12-13T12:54:11.171Z,0.60
2018-12-13T12:56:39.775Z,0.50
2018-12-13T12:59:08.382Z,0.50
2018-12-13T13:01:37.008Z,0.50
2018-12-13T13:04:05.631Z,0.50
2018-12-13T13:06:34.237Z,0.60
2018-12-13T13:09:03.701Z,0.60
2018-12-13T13:11:32.304Z,0.60
2018-12-13T13:14:00.924Z,0.50
2018-12-13T13:16:29.575Z,0.50
2018-12-13T13:18:58.212Z,0.40
2018-12-13T13:21:26.802Z,0.40
2018-12-13T13:23:55.430Z,0.50
2018-12-13T13:26:24.051Z,0.40
2018-12-13T13:28:53.235Z,0.50
2018-12-13T13:31:21.835Z,0.60
2018-12-13T13:33:50.514Z,0.60
2018-12-13T13:36:19.111Z,0.60
2018-12-13T13:38:47.732Z,0.60
2018-12-13T13:41:16.377Z,0.60
2018-12-13T13:43:44.972Z,0.70
2018-12-13T13:46:13.556Z,0.70
2018-12-13T13:48:42.137Z,0.60
2018-12-13T13:51:10.719Z,0.60
2018-12-13T13:53:39.427Z,0.60
2018-12-13T13:56:08.103Z,0.60
2018-12-13T13:58:37.105Z,0.60
2018-12-13T14:01:05.698Z,0.60
2018-12-13T14:03:34.311Z,0.60
2018-12-13T14:06:03.050Z,0.60
2018-12-13T14:08:31.570Z,0.50
2018-12-13T14:11:00.106Z,0.50
2018-12-13T14:13:28.644Z,0.40
2018-12-13T14:15:57.160Z,0.50
2018-12-13T14:18:25.719Z,0.50
2018-12-13T14:20:54.284Z,0.50
2018-12-13T14:23:23.052Z,0.60
2018-12-13T14:25:51.572Z,0.50
2018-12-13T14:28:20.101Z,0.50
2018-12-13T14:30:48.650Z,0.50
2018-12-13T14:33:17.299Z,0.40
2018-12-13T14:35:45.822Z,0.30
2018-12-13T14:38:14.381Z,0.20
2018-12-13T14:40:42.902Z,0.30
2018-12-13T14:43:11.607Z,0.30
2018-12-13T14:45:40.139Z,0.30
2018-12-13T14:48:09.126Z,0.30
2018-12-13T14:50:37.878Z,0.20
2018-12-13T14:53:06.471Z,0.30
2018-12-13T14:55:35.066Z,0.30
2018-12-13T14:58:03.659Z,0.30
2018-12-13T15:00:32.212Z,0.20
2018-12-13T15:03:00.996Z,0.30
2018-12-13T15:05:29.666Z,0.30
2018-12-13T15:07:58.223Z,0.30
2018-12-13T15:10:26.947Z,0.30
2018-12-13T15:12:55.487Z,0.30
2018-12-13T15:15:24.052Z,0.30
2018-12-13T15:17:52.676Z,0.30
2018-12-13T15:20:21.206Z,0.30
2018-12-13T15:22:49.847Z,0.30
2018-12-13T15:25:18.459Z,0.20
2018-12-13T15:27:47.070Z,0.20
2018-12-13T15:30:15.727Z,0.20
2018-12-13T15:32:44.264Z,0.30
2018-12-13T15:35:12.814Z,0.20
2018-12-13T15:37:41.357Z,0.30
2018-12-13T15:40:09.912Z,0.30
2018-12-13T15:42:38.430Z,0.20
2018-12-13T15:45:08.273Z,0.20
2018-12-13T15:47:36.975Z,0.20
2018-12-13T15:50:06.265Z,0.10
2018-12-13T15:52:34.930Z,0.20
2018-12-13T15:55:03.776Z,0.10
2018-12-13T15:57:32.440Z,0.10
2018-12-13T16:00:00.988Z,0.10
2018-12-13T16:02:29.576Z,0.00
2018-12-13T16:04:58.128Z,0.00
2018-12-13T16:07:26.807Z,0.10
2018-12-13T16:09:55.344Z,0.10
2018-12-13T16:12:23.867Z,0.10
2018-12-13T16:14:52.531Z,0.10
2018-12-13T16:17:21.051Z,0.10
2018-12-13T16:19:49.578Z,0.20
2018-12-13T16:22:18.137Z,0.20
2018-12-13T16:24:46.662Z,0.20
2018-12-13T16:27:15.303Z,0.20
2018-12-13T16:29:43.843Z,0.20
2018-12-13T16:32:12.386Z,0.20
2018-12-13T16:34:40.910Z,0.20
2018-12-13T16:37:09.475Z,0.20
2018-12-13T16:39:38.023Z,0.20
2018-12-13T16:42:06.574Z,0.20
2018-12-13T16:44:35.099Z,0.10
2018-12-13T16:47:03.687Z,0.10
2018-12-13T16:49:32.217Z,0.10
2018-12-13T16:52:00.747Z,0.10
2018-12-13T16:54:29.336Z,0.20
2018-12-13T16:56:57.908Z,0.20
2018-12-13T16:59:27.511Z,0.20
2018-12-13T17:01:56.102Z,0.20
2018-12-13T17:04:24.653Z,0.20
2018-12-13T17:06:53.354Z,0.10
2018-12-13T17:09:21.899Z,0.00
2018-12-13T17:11:50.496Z,0.00
2018-12-13T17:14:19.049Z,0.10
2018-12-13T17:16:47.603Z,0.10
2018-12-13T17:19:16.155Z,0.10
2018-12-13T17:21:44.768Z,0.10
2018-12-13T17:24:13.396Z,0.20
2018-12-13T17:26:41.936Z,0.10
2018-12-13T17:29:10.476Z,0.10
2018-12-13T17:31:39.112Z,0.10
2018-12-13T17:34:07.657Z,0.10
2018-12-13T17:36:36.249Z,0.00
2018-12-13T17:39:06.743Z,0.00
2018-12-13T17:41:35.287Z,0.00
2018-12-13T17:44:03.996Z,0.00
2018-12-13T17:46:32.548Z,0.00
2018-12-13T17:49:01.095Z,0.00
2018-12-13T17:51:30.899Z,0.00
2018-12-13T17:53:59.656Z,0.10
2018-12-13T17:56:28.239Z,0.10
2018-12-13T17:58:56.820Z,0.00
2018-12-13T18:01:25.377Z,0.00
2018-12-13T18:03:54.045Z,0.00
2018-12-13T18:06:22.584Z,0.10
2018-12-13T18:08:51.116Z,0.10
2018-12-13T18:11:19.960Z,0.10
2018-12-13T18:13:48.515Z,0.10
2018-12-13T18:16:17.043Z,0.10
2018-12-13T18:18:45.591Z,0.10
2018-12-13T18:21:14.104Z,0.10
2018-12-13T18:23:42.721Z,0.10
2018-12-13T18:26:11.294Z,0.10
2018-12-13T18:28:39.838Z,0.10
2018-12-13T18:31:08.400Z,0.10
2018-12-13T18:33:36.923Z,0.10
2018-12-13T18:36:05.598Z,0.20
2018-12-13T18:38:34.140Z,0.10
2018-12-13T18:41:02.791Z,0.10
2018-12-13T18:43:31.355Z,0.10
2018-12-13T18:45:59.910Z,0.10
2018-12-13T18:48:28.465Z,0.10
2018-12-13T18:50:57.002Z,0.10
2018-12-13T18:53:25.538Z,0.20
2018-12-13T18:55:54.087Z,0.20
2018-12-13T18:58:22.625Z,0.20
2018-12-13T19:00:51.199Z,0.20
2018-12-13T19:03:19.743Z,0.20
2018-12-13T19:05:48.348Z,0.20
2018-12-13T19:08:16.900Z,0.20
2018-12-13T19:10:45.959Z,0.30
2018-12-13T19:13:15.436Z,0.30
2018-12-13T19:15:44.845Z,0.40
2018-12-13T19:18:13.457Z,0.30
2018-12-13T19:20:42.011Z,0.40
2018-12-13T19:23:10.592Z,0.40
2018-12-13T19:25:39.164Z,0.40
2018-12-13T19:28:07.728Z,0.40
2018-12-13T19:30:36.270Z,0.30
2018-12-13T19:33:04.830Z,0.20
2018-12-13T19:35:33.387Z,0.30
2018-12-13T19:38:01.931Z,0.20
2018-12-13T19:40:30.472Z,0.20
2018-12-13T19:42:59.035Z,0.20
2018-12-13T19:45:27.681Z,0.20
2018-12-13T19:47:56.224Z,0.20
2018-12-13T19:50:25.020Z,0.20
2018-12-13T19:52:57.869Z,0.20
2018-12-13T19:55:26.435Z,0.20
2018-12-13T19:57:55.027Z,0.20
2018-12-13T20:00:24.537Z,0.20
2018-12-13T20:02:53.075Z,0.20
2018-12-13T20:05:21.655Z,0.20
2018-12-13T20:07:50.197Z,0.10
2018-12-13T20:10:18.735Z,0.10
2018-12-13T20:12:47.371Z,0.20
2018-12-13T20:15:15.905Z,0.20
2018-12-13T20:17:44.575Z,0.20
2018-12-13T20:20:13.175Z,0.20
2018-12-13T20:22:41.757Z,0.20
2018-12-13T20:25:11.864Z,0.20
2018-12-13T20:27:40.424Z,0.20
2018-12-13T20:30:09.611Z,0.20
2018-12-13T20:32:38.168Z,0.20
2018-12-13T20:35:07.427Z,0.20
2018-12-13T20:37:36.011Z,0.10
2018-12-13T20:40:04.908Z,0.10
2018-12-13T20:42:33.488Z,0.20
2018-12-13T20:45:02.222Z,0.10
2018-12-13T20:47:30.791Z,0.20
2018-12-13T20:49:59.344Z,0.20
2018-12-13T20:52:27.911Z,0.20
2018-12-13T20:54:56.507Z,0.30
2018-12-13T20:57:25.038Z,0.20
2018-12-13T20:59:53.576Z,0.30
2018-12-13T21:02:22.115Z,0.30
2018-12-13T21:04:50.643Z,0.30
2018-12-13T21:07:24.455Z,0.30
2018-12-13T21:09:53.438Z,0.20
2018-12-13T21:12:21.982Z,0.30
2018-12-13T21:14:50.756Z,0.20
2018-12-13T21:17:19.315Z,0.20
2018-12-13T21:19:47.936Z,0.20
2018-12-13T21:22:16.487Z,0.20
2018-12-13T21:24:45.055Z,0.20
2018-12-13T21:27:13.583Z,0.30
2018-12-13T21:29:42.110Z,0.30
2018-12-13T21:32:10.646Z,0.30
2018-12-13T21:34:39.199Z,0.20
2018-12-13T21:37:07.729Z,0.20
2018-12-13T21:39:36.283Z,0.20
2018-12-13T21:42:04.807Z,0.30
2018-12-13T21:44:33.351Z,0.30
2018-12-13T21:47:01.902Z,0.30
2018-12-13T21:49:30.434Z,0.30
2018-12-13T21:51:59.071Z,0.30
2018-12-13T21:54:27.612Z,0.40
2018-12-13T21:56:56.383Z,0.40
2018-12-13T21:59:24.964Z,0.40
2018-12-13T22:01:53.511Z,0.40
2018-12-13T22:04:22.058Z,0.50
2018-12-13T22:06:50.630Z,0.50
2018-12-13T22:09:19.234Z,0.50
2018-12-13T22:11:47.865Z,0.50
2018-12-13T22:14:17.648Z,0.50
2018-12-13T22:16:46.219Z,0.50
2018-12-13T22:19:14.771Z,0.50
2018-12-13T22:21:43.336Z,0.50
2018-12-13T22:24:12.021Z,0.50
2018-12-13T22:26:40.640Z,0.50
2018-12-13T22:29:09.229Z,0.50
2018-12-13T22:31:37.871Z,0.50
2018-12-13T22:34:06.507Z,0.50
2018-12-13T22:36:35.814Z,0.50
2018-12-13T22:39:06.539Z,0.50
2018-12-13T22:41:35.257Z,0.50
2018-12-13T22:44:03.819Z,0.40
2018-12-13T22:46:32.535Z,0.40
2018-12-13T22:49:01.101Z,0.30
2018-12-13T22:51:29.658Z,0.40
2018-12-13T22:53:58.218Z,0.30
2018-12-13T22:56:26.875Z,0.30
2018-12-13T22:58:55.499Z,0.30
2018-12-13T23:01:24.911Z,0.40
2018-12-13T23:03:53.463Z,0.40
2018-12-13T23:06:22.042Z,0.40
2018-12-13T23:08:50.613Z,0.40
2018-12-13T23:11:19.222Z,0.40
2018-12-13T23:13:47.789Z,0.40
2018-12-13T23:16:16.392Z,0.40
2018-12-13T23:18:44.923Z,0.40
2018-12-13T23:21:13.520Z,0.30
2018-12-13T23:23:42.130Z,0.30
2018-12-13T23:26:10.678Z,0.20
2018-12-13T23:28:39.232Z,0.20
2018-12-13T23:31:07.800Z,0.10
2018-12-13T23:33:36.374Z,0.00
2018-12-13T23:36:05.107Z,0.00
2018-12-13T23:38:33.687Z,0.00
2018-12-13T23:41:02.231Z,0.00
2018-12-13T23:43:30.791Z,0.00
2018-12-13T23:45:59.382Z,-0.10
2018-12-13T23:48:28.263Z,-0.10
2018-12-13T23:50:56.820Z,-0.10
2018-12-13T23:53:25.615Z,-0.10
2018-12-13T23:55:54.508Z,-0.10
2018-12-13T23:58:23.348Z,-0.10
